sensor_id;sensor_type;location;lat;lon;timestamp;pressure;altitude;pressure_sealevel;temperature;humidity
75045;BME280;63614;56.026;35.960;2023-12-20T00:01:37;97476.31;;;4.20;80.69
75045;BME280;63614;56.026;35.960;2023-12-20T00:04:04;97474.13;;;4.24;80.41
75045;BME280;63614;56.026;35.960;2023-12-20T00:06:30;97467.41;;;4.23;80.38
75045;BME280;63614;56.026;35.960;2023-12-20T00:08:57;97458.72;;;4.30;80.00
75045;BME280;63614;56.026;35.960;2023-12-20T00:11:24;97468.44;;;4.35;79.73
75045;BME280;63614;56.026;35.960;2023-12-20T00:13:50;97476.78;;;4.44;79.37
75045;BME280;63614;56.026;35.960;2023-12-20T00:16:16;97463.47;;;4.40;79.68
75045;BME280;63614;56.026;35.960;2023-12-20T00:18:43;97468.22;;;4.36;79.77
75045;BME280;63614;56.026;35.960;2023-12-20T00:21:09;97461.09;;;4.39;79.84
75045;BME280;63614;56.026;35.960;2023-12-20T00:23:35;97455.56;;;4.35;79.49
75045;BME280;63614;56.026;35.960;2023-12-20T00:26:01;97464.63;;;4.17;80.32
75045;BME280;63614;56.026;35.960;2023-12-20T00:28:28;97458.31;;;4.20;80.44
75045;BME280;63614;56.026;35.960;2023-12-20T00:30:53;97450.38;;;4.22;80.78
75045;BME280;63614;56.026;35.960;2023-12-20T00:33:20;97450.38;;;4.22;80.89
75045;BME280;63614;56.026;35.960;2023-12-20T00:35:46;97457.06;;;4.09;81.36
75045;BME280;63614;56.026;35.960;2023-12-20T00:38:12;97460.41;;;4.03;81.66
75045;BME280;63614;56.026;35.960;2023-12-20T00:40:38;97445.81;;;4.10;81.68
75045;BME280;63614;56.026;35.960;2023-12-20T00:43:04;97446.13;;;3.94;81.79
75045;BME280;63614;56.026;35.960;2023-12-20T00:45:29;97436.84;;;3.93;81.88
75045;BME280;63614;56.026;35.960;2023-12-20T00:47:55;97439.84;;;4.03;81.90
75045;BME280;63614;56.026;35.960;2023-12-20T00:50:21;97432.91;;;4.04;81.67
75045;BME280;63614;56.026;35.960;2023-12-20T00:52:48;97432.75;;;4.12;81.78
75045;BME280;63614;56.026;35.960;2023-12-20T00:55:15;97428.59;;;4.11;81.86
75045;BME280;63614;56.026;35.960;2023-12-20T00:57:40;97429.16;;;3.99;82.43
75045;BME280;63614;56.026;35.960;2023-12-20T01:00:06;97419.63;;;4.00;82.58
75045;BME280;63614;56.026;35.960;2023-12-20T01:02:35;97418.47;;;3.96;82.45
75045;BME280;63614;56.026;35.960;2023-12-20T01:05:01;97424.56;;;3.88;82.62
75045;BME280;63614;56.026;35.960;2023-12-20T01:07:30;97420.56;;;3.79;83.09
75045;BME280;63614;56.026;35.960;2023-12-20T01:09:56;97419.97;;;3.77;82.85
75045;BME280;63614;56.026;35.960;2023-12-20T01:12:22;97426.44;;;3.66;83.27
75045;BME280;63614;56.026;35.960;2023-12-20T01:14:48;97407.69;;;3.72;83.39
75045;BME280;63614;56.026;35.960;2023-12-20T01:17:14;97409.66;;;3.70;83.54
75045;BME280;63614;56.026;35.960;2023-12-20T01:19:41;97401.72;;;3.65;83.74
75045;BME280;63614;56.026;35.960;2023-12-20T01:22:07;97396.22;;;3.75;83.39
75045;BME280;63614;56.026;35.960;2023-12-20T01:24:32;97391.50;;;3.85;82.97
75045;BME280;63614;56.026;35.960;2023-12-20T01:26:59;97384.38;;;3.87;83.11
75045;BME280;63614;56.026;35.960;2023-12-20T01:29:24;97388.38;;;3.90;82.85
75045;BME280;63614;56.026;35.960;2023-12-20T01:31:51;97391.69;;;3.84;82.86
75045;BME280;63614;56.026;35.960;2023-12-20T01:34:17;97383.78;;;3.78;83.00
75045;BME280;63614;56.026;35.960;2023-12-20T01:36:43;97381.22;;;3.85;83.15
75045;BME280;63614;56.026;35.960;2023-12-20T01:39:09;97369.41;;;3.97;82.89
75045;BME280;63614;56.026;35.960;2023-12-20T01:41:34;97366.44;;;4.00;82.82
75045;BME280;63614;56.026;35.960;2023-12-20T01:44:00;97377.31;;;4.03;82.79
75045;BME280;63614;56.026;35.960;2023-12-20T01:46:26;97367.59;;;3.98;82.68
75045;BME280;63614;56.026;35.960;2023-12-20T01:48:52;97358.06;;;3.85;83.23
75045;BME280;63614;56.026;35.960;2023-12-20T01:51:19;97356.88;;;3.88;83.68
75045;BME280;63614;56.026;35.960;2023-12-20T01:53:46;97349.59;;;3.91;83.73
75045;BME280;63614;56.026;35.960;2023-12-20T01:56:13;97345.03;;;4.00;83.42
75045;BME280;63614;56.026;35.960;2023-12-20T01:58:43;97351.00;;;4.00;83.72
75045;BME280;63614;56.026;35.960;2023-12-20T02:01:10;97351.97;;;3.99;83.64
75045;BME280;63614;56.026;35.960;2023-12-20T02:03:36;97345.03;;;4.00;83.74
75045;BME280;63614;56.026;35.960;2023-12-20T02:06:03;97347.59;;;3.93;84.06
75045;BME280;63614;56.026;35.960;2023-12-20T02:08:30;97348.56;;;3.79;84.66
75045;BME280;63614;56.026;35.960;2023-12-20T02:10:56;97356.06;;;3.74;85.09
75045;BME280;63614;56.026;35.960;2023-12-20T02:13:22;97358.03;;;3.72;85.33
75045;BME280;63614;56.026;35.960;2023-12-20T02:15:48;97355.31;;;3.80;85.51
75045;BME280;63614;56.026;35.960;2023-12-20T02:18:14;97340.66;;;3.80;85.39
75045;BME280;63614;56.026;35.960;2023-12-20T02:20:42;97343.63;;;3.84;84.91
75045;BME280;63614;56.026;35.960;2023-12-20T02:23:08;97343.63;;;3.77;84.64
75045;BME280;63614;56.026;35.960;2023-12-20T02:25:34;97341.06;;;3.84;84.42
75045;BME280;63614;56.026;35.960;2023-12-20T02:28:01;97339.28;;;3.85;83.98
75045;BME280;63614;56.026;35.960;2023-12-20T02:30:27;97336.31;;;3.88;83.52
75045;BME280;63614;56.026;35.960;2023-12-20T02:32:53;97346.75;;;3.73;84.13
75045;BME280;63614;56.026;35.960;2023-12-20T02:35:19;97336.69;;;3.78;84.04
75045;BME280;63614;56.026;35.960;2023-12-20T02:37:45;97336.50;;;3.79;84.93
75045;BME280;63614;56.026;35.960;2023-12-20T02:40:11;97332.31;;;3.72;84.68
75045;BME280;63614;56.026;35.960;2023-12-20T02:42:37;97336.50;;;3.79;84.83
75045;BME280;63614;56.026;35.960;2023-12-20T02:45:03;97326.97;;;3.73;85.28
75045;BME280;63614;56.026;35.960;2023-12-20T02:47:31;97336.69;;;3.78;85.31
75045;BME280;63614;56.026;35.960;2023-12-20T02:49:57;97340.28;;;3.84;85.37
75045;BME280;63614;56.026;35.960;2023-12-20T02:52:24;97344.63;;;3.83;85.78
75045;BME280;63614;56.026;35.960;2023-12-20T02:54:50;97352.69;;;3.73;85.33
75045;BME280;63614;56.026;35.960;2023-12-20T02:57:16;97346.56;;;3.68;85.57
75045;BME280;63614;56.026;35.960;2023-12-20T02:59:42;97346.53;;;3.61;85.28
75045;BME280;63614;56.026;35.960;2023-12-20T03:02:08;97334.84;;;3.58;85.53
75045;BME280;63614;56.026;35.960;2023-12-20T03:04:34;97340.38;;;3.55;85.44
75045;BME280;63614;56.026;35.960;2023-12-20T03:07:00;97340.19;;;3.57;85.26
75045;BME280;63614;56.026;35.960;2023-12-20T03:09:26;97336.84;;;3.56;84.93
75045;BME280;63614;56.026;35.960;2023-12-20T03:11:52;97342.38;;;3.60;84.86
75045;BME280;63614;56.026;35.960;2023-12-20T03:14:18;97340.00;;;3.65;85.03
75045;BME280;63614;56.026;35.960;2023-12-20T03:16:49;97338.22;;;3.59;84.85
75045;BME280;63614;56.026;35.960;2023-12-20T03:19:17;97345.22;;;3.78;84.78
75045;BME280;63614;56.026;35.960;2023-12-20T03:21:43;97335.50;;;3.80;84.14
75045;BME280;63614;56.026;35.960;2023-12-20T03:24:09;97347.34;;;3.75;84.36
75045;BME280;63614;56.026;35.960;2023-12-20T03:26:35;97341.44;;;3.81;83.88
75045;BME280;63614;56.026;35.960;2023-12-20T03:29:01;97343.63;;;3.77;83.54
75045;BME280;63614;56.026;35.960;2023-12-20T03:31:26;97330.97;;;3.82;83.65
75045;BME280;63614;56.026;35.960;2023-12-20T03:33:52;97333.31;;;3.77;83.95
75045;BME280;63614;56.026;35.960;2023-12-20T03:36:20;97330.75;;;3.71;84.04
75045;BME280;63614;56.026;35.960;2023-12-20T03:38:46;97334.53;;;3.81;83.86
75045;BME280;63614;56.026;35.960;2023-12-20T03:41:13;97330.75;;;3.71;83.92
75045;BME280;63614;56.026;35.960;2023-12-20T03:43:39;97336.28;;;3.74;84.06
75045;BME280;63614;56.026;35.960;2023-12-20T03:46:08;97336.50;;;3.79;83.71
75045;BME280;63614;56.026;35.960;2023-12-20T03:48:34;97341.50;;;3.94;82.99
75045;BME280;63614;56.026;35.960;2023-12-20T03:51:04;97341.06;;;3.84;82.82
75045;BME280;63614;56.026;35.960;2023-12-20T03:53:30;97347.78;;;3.78;82.99
75045;BME280;63614;56.026;35.960;2023-12-20T03:55:56;97343.22;;;3.67;83.35
75045;BME280;63614;56.026;35.960;2023-12-20T03:58:21;97341.63;;;3.73;83.62
75045;BME280;63614;56.026;35.960;2023-12-20T04:00:47;97334.50;;;3.75;83.27
75045;BME280;63614;56.026;35.960;2023-12-20T04:03:13;97343.22;;;3.67;83.26
75045;BME280;63614;56.026;35.960;2023-12-20T04:05:42;97343.41;;;3.72;83.13
75045;BME280;63614;56.026;35.960;2023-12-20T04:08:09;97346.75;;;3.66;82.92
75045;BME280;63614;56.026;35.960;2023-12-20T04:10:35;97361.00;;;3.69;82.97
75045;BME280;63614;56.026;35.960;2023-12-20T04:13:03;97354.50;;;3.79;82.42
75045;BME280;63614;56.026;35.960;2023-12-20T04:15:29;97349.13;;;3.68;82.51
75045;BME280;63614;56.026;35.960;2023-12-20T04:17:55;97358.03;;;3.72;82.62
75045;BME280;63614;56.026;35.960;2023-12-20T04:20:21;97373.22;;;3.60;82.74
75045;BME280;63614;56.026;35.960;2023-12-20T04:22:47;97365.50;;;3.60;83.08
75045;BME280;63614;56.026;35.960;2023-12-20T04:25:13;97370.25;;;3.56;83.10
75045;BME280;63614;56.026;35.960;2023-12-20T04:27:38;97376.00;;;3.58;83.00
75045;BME280;63614;56.026;35.960;2023-12-20T04:30:05;97382.72;;;3.59;82.82
75045;BME280;63614;56.026;35.960;2023-12-20T04:32:32;97383.34;;;3.68;82.77
75045;BME280;63614;56.026;35.960;2023-12-20T04:34:58;97389.69;;;3.66;82.68
75045;BME280;63614;56.026;35.960;2023-12-20T04:37:24;97393.03;;;3.66;82.81
75045;BME280;63614;56.026;35.960;2023-12-20T04:39:50;97394.81;;;3.66;82.77
75045;BME280;63614;56.026;35.960;2023-12-20T04:42:16;97402.47;;;3.59;82.66
75045;BME280;63614;56.026;35.960;2023-12-20T04:44:43;97394.81;;;3.66;82.39
75045;BME280;63614;56.026;35.960;2023-12-20T04:47:10;97395.22;;;3.69;82.13
75045;BME280;63614;56.026;35.960;2023-12-20T04:49:36;97391.63;;;3.63;81.94
75045;BME280;63614;56.026;35.960;2023-12-20T04:52:02;97390.50;;;3.79;81.56
75045;BME280;63614;56.026;35.960;2023-12-20T04:54:28;97392.09;;;3.87;80.95
75045;BME280;63614;56.026;35.960;2023-12-20T04:56:54;97393.69;;;3.81;81.13
75045;BME280;63614;56.026;35.960;2023-12-20T04:59:20;97396.84;;;3.77;81.15
75045;BME280;63614;56.026;35.960;2023-12-20T05:01:46;97394.06;;;3.78;80.74
75045;BME280;63614;56.026;35.960;2023-12-20T05:04:12;97403.97;;;3.81;81.04
75045;BME280;63614;56.026;35.960;2023-12-20T05:06:38;97398.84;;;3.88;80.91
75045;BME280;63614;56.026;35.960;2023-12-20T05:09:04;97393.69;;;3.81;80.73
75045;BME280;63614;56.026;35.960;2023-12-20T05:11:30;97398.19;;;3.73;80.99
75045;BME280;63614;56.026;35.960;2023-12-20T05:13:56;97392.63;;;3.62;81.34
75045;BME280;63614;56.026;35.960;2023-12-20T05:16:21;97399.88;;;3.52;82.11
75045;BME280;63614;56.026;35.960;2023-12-20T05:18:48;97400.84;;;3.44;82.34
75045;BME280;63614;56.026;35.960;2023-12-20T05:21:18;97401.84;;;3.43;82.33
75045;BME280;63614;56.026;35.960;2023-12-20T05:23:45;97403.91;;;3.26;83.49
75045;BME280;63614;56.026;35.960;2023-12-20T05:26:11;97405.31;;;3.29;83.23
75045;BME280;63614;56.026;35.960;2023-12-20T05:28:37;97406.66;;;3.25;83.21
75045;BME280;63614;56.026;35.960;2023-12-20T05:31:03;97407.88;;;3.29;83.42
75045;BME280;63614;56.026;35.960;2023-12-20T05:33:29;97407.66;;;3.24;83.44
75045;BME280;63614;56.026;35.960;2023-12-20T05:35:55;97407.50;;;3.32;83.15
75045;BME280;63614;56.026;35.960;2023-12-20T05:38:21;97394.84;;;3.31;83.29
75045;BME280;63614;56.026;35.960;2023-12-20T05:40:47;97410.13;;;3.39;82.96
75045;BME280;63614;56.026;35.960;2023-12-20T05:43:13;97413.25;;;3.34;83.07
75045;BME280;63614;56.026;35.960;2023-12-20T05:45:38;97402.00;;;3.35;83.02
75045;BME280;63614;56.026;35.960;2023-12-20T05:48:04;97399.25;;;3.43;82.56
75045;BME280;63614;56.026;35.960;2023-12-20T05:50:30;97401.06;;;3.50;82.45
75045;BME280;63614;56.026;35.960;2023-12-20T05:52:56;97405.03;;;3.52;82.35
75045;BME280;63614;56.026;35.960;2023-12-20T05:55:22;97413.97;;;3.63;81.75
75045;BME280;63614;56.026;35.960;2023-12-20T05:57:48;97400.09;;;3.57;81.81
75045;BME280;63614;56.026;35.960;2023-12-20T06:00:14;97411.19;;;3.58;81.74
75045;BME280;63614;56.026;35.960;2023-12-20T06:02:41;97405.41;;;3.49;82.12
75045;BME280;63614;56.026;35.960;2023-12-20T06:05:07;97406.34;;;3.41;82.08
75045;BME280;63614;56.026;35.960;2023-12-20T06:07:34;97405.00;;;3.45;82.15
75045;BME280;63614;56.026;35.960;2023-12-20T06:10:00;97404.63;;;3.49;82.18
75045;BME280;63614;56.026;35.960;2023-12-20T06:12:26;97404.25;;;3.52;82.10
75045;BME280;63614;56.026;35.960;2023-12-20T06:14:58;97405.25;;;3.57;81.60
75045;BME280;63614;56.026;35.960;2023-12-20T06:17:24;97405.88;;;3.66;81.38
75045;BME280;63614;56.026;35.960;2023-12-20T06:19:50;97407.41;;;3.54;81.29
75045;BME280;63614;56.026;35.960;2023-12-20T06:22:16;97417.91;;;3.59;81.45
75045;BME280;63614;56.026;35.960;2023-12-20T06:24:42;97417.13;;;3.65;81.06
75045;BME280;63614;56.026;35.960;2023-12-20T06:27:07;97405.88;;;3.59;81.35
75045;BME280;63614;56.026;35.960;2023-12-20T06:29:34;97412.72;;;3.52;81.57
75045;BME280;63614;56.026;35.960;2023-12-20T06:32:01;97413.59;;;3.66;80.93
75045;BME280;63614;56.026;35.960;2023-12-20T06:34:27;97417.34;;;3.63;80.80
75045;BME280;63614;56.026;35.960;2023-12-20T06:36:53;97418.53;;;3.61;80.55
75045;BME280;63614;56.026;35.960;2023-12-20T06:39:19;97419.34;;;3.68;79.80
75045;BME280;63614;56.026;35.960;2023-12-20T06:41:45;97425.47;;;3.67;79.70
75045;BME280;63614;56.026;35.960;2023-12-20T06:44:11;97425.03;;;3.63;79.52
75045;BME280;63614;56.026;35.960;2023-12-20T06:46:37;97424.84;;;3.65;79.55
75045;BME280;63614;56.026;35.960;2023-12-20T06:49:03;97432.59;;;3.72;79.25
75045;BME280;63614;56.026;35.960;2023-12-20T06:51:29;97424.16;;;3.85;79.13
75045;BME280;63614;56.026;35.960;2023-12-20T06:53:56;97436.81;;;3.86;79.15
75045;BME280;63614;56.026;35.960;2023-12-20T06:56:22;97426.13;;;3.89;78.79
75045;BME280;63614;56.026;35.960;2023-12-20T06:58:48;97430.47;;;3.82;78.83
75045;BME280;63614;56.026;35.960;2023-12-20T07:01:14;97424.00;;;3.93;78.66
75045;BME280;63614;56.026;35.960;2023-12-20T07:03:41;97429.72;;;3.95;78.37
75045;BME280;63614;56.026;35.960;2023-12-20T07:06:07;97423.53;;;3.82;78.66
75045;BME280;63614;56.026;35.960;2023-12-20T07:08:34;97422.75;;;3.82;78.55
75045;BME280;63614;56.026;35.960;2023-12-20T07:11:00;97426.50;;;3.79;79.02
75045;BME280;63614;56.026;35.960;2023-12-20T07:13:26;97433.81;;;3.82;79.06
75045;BME280;63614;56.026;35.960;2023-12-20T07:15:52;97430.28;;;3.84;78.76
75045;BME280;63614;56.026;35.960;2023-12-20T07:18:18;97428.31;;;3.92;78.60
75045;BME280;63614;56.026;35.960;2023-12-20T07:20:44;97440.84;;;4.02;78.31
75045;BME280;63614;56.026;35.960;2023-12-20T07:23:10;97436.28;;;3.97;78.31
75045;BME280;63614;56.026;35.960;2023-12-20T07:25:36;97437.63;;;3.93;78.57
75045;BME280;63614;56.026;35.960;2023-12-20T07:28:02;97450.50;;;3.93;78.66
75045;BME280;63614;56.026;35.960;2023-12-20T07:30:28;97449.47;;;3.88;79.08
75045;BME280;63614;56.026;35.960;2023-12-20T07:32:53;97458.31;;;3.72;79.60
75045;BME280;63614;56.026;35.960;2023-12-20T07:35:19;97463.88;;;3.75;79.98
75045;BME280;63614;56.026;35.960;2023-12-20T07:37:45;97456.38;;;3.80;80.13
75045;BME280;63614;56.026;35.960;2023-12-20T07:40:11;97462.13;;;3.82;79.89
75045;BME280;63614;56.026;35.960;2023-12-20T07:42:37;97466.13;;;3.92;79.56
75045;BME280;63614;56.026;35.960;2023-12-20T07:45:03;97470.91;;;4.02;79.48
75045;BME280;63614;56.026;35.960;2023-12-20T07:47:32;97455.06;;;4.05;79.22
75045;BME280;63614;56.026;35.960;2023-12-20T07:49:58;97461.84;;;4.12;79.22
75045;BME280;63614;56.026;35.960;2023-12-20T07:52:24;97463.84;;;4.17;79.24
75045;BME280;63614;56.026;35.960;2023-12-20T07:54:52;97472.34;;;4.17;78.88
75045;BME280;63614;56.026;35.960;2023-12-20T07:57:17;97465.00;;;4.14;79.35
75045;BME280;63614;56.026;35.960;2023-12-20T07:59:43;97468.78;;;4.12;79.53
75045;BME280;63614;56.026;35.960;2023-12-20T08:02:10;97472.31;;;4.04;79.56
75045;BME280;63614;56.026;35.960;2023-12-20T08:04:36;97464.03;;;4.15;79.68
75045;BME280;63614;56.026;35.960;2023-12-20T08:07:02;97463.47;;;4.33;78.92
75045;BME280;63614;56.026;35.960;2023-12-20T08:09:28;97472.41;;;4.38;78.83
75045;BME280;63614;56.026;35.960;2023-12-20T08:11:53;97453.72;;;4.15;79.19
75045;BME280;63614;56.026;35.960;2023-12-20T08:14:19;97460.13;;;4.33;78.96
75045;BME280;63614;56.026;35.960;2023-12-20T08:16:45;97464.69;;;4.38;78.58
75045;BME280;63614;56.026;35.960;2023-12-20T08:19:11;97459.78;;;4.63;78.02
75045;BME280;63614;56.026;35.960;2023-12-20T08:21:37;97462.91;;;4.51;78.25
75045;BME280;63614;56.026;35.960;2023-12-20T08:24:03;97448.28;;;4.65;77.91
75045;BME280;63614;56.026;35.960;2023-12-20T08:26:29;97447.09;;;4.81;77.33
75045;BME280;63614;56.026;35.960;2023-12-20T08:28:55;97463.31;;;4.82;77.33
75045;BME280;63614;56.026;35.960;2023-12-20T08:31:21;97463.13;;;4.83;77.26
75045;BME280;63614;56.026;35.960;2023-12-20T08:33:48;97456.81;;;4.86;77.38
75045;BME280;63614;56.026;35.960;2023-12-20T08:36:14;97470.06;;;4.89;77.33
75045;BME280;63614;56.026;35.960;2023-12-20T08:38:40;97461.75;;;4.74;77.67
75045;BME280;63614;56.026;35.960;2023-12-20T08:41:06;97455.22;;;4.98;77.15
75045;BME280;63614;56.026;35.960;2023-12-20T08:43:34;97454.81;;;5.08;76.69
75045;BME280;63614;56.026;35.960;2023-12-20T08:46:01;97455.00;;;5.13;76.29
75045;BME280;63614;56.026;35.960;2023-12-20T08:48:28;97458.56;;;5.12;76.52
75045;BME280;63614;56.026;35.960;2023-12-20T08:50:54;97454.22;;;4.93;77.50
75045;BME280;63614;56.026;35.960;2023-12-20T08:53:20;97453.63;;;5.04;77.39
75045;BME280;63614;56.026;35.960;2023-12-20T08:55:46;97450.88;;;4.92;77.68
75045;BME280;63614;56.026;35.960;2023-12-20T08:58:13;97454.00;;;5.01;77.29
75045;BME280;63614;56.026;35.960;2023-12-20T09:00:39;97464.53;;;4.99;77.58
75045;BME280;63614;56.026;35.960;2023-12-20T09:03:05;97448.88;;;5.01;77.19
75045;BME280;63614;56.026;35.960;2023-12-20T09:05:31;97461.75;;;4.87;77.85
75045;BME280;63614;56.026;35.960;2023-12-20T09:07:58;97449.47;;;4.83;78.07
75045;BME280;63614;56.026;35.960;2023-12-20T09:10:24;97443.72;;;4.81;78.18
75045;BME280;63614;56.026;35.960;2023-12-20T09:12:50;97440.75;;;4.84;77.87
75045;BME280;63614;56.026;35.960;2023-12-20T09:15:16;97439.97;;;4.90;77.75
75045;BME280;63614;56.026;35.960;2023-12-20T09:17:43;97442.53;;;5.03;77.33
75045;BME280;63614;56.026;35.960;2023-12-20T09:20:09;97445.50;;;4.94;77.21
75045;BME280;63614;56.026;35.960;2023-12-20T09:22:36;97437.38;;;4.97;77.29
75045;BME280;63614;56.026;35.960;2023-12-20T09:25:04;97441.75;;;5.03;77.06
75045;BME280;63614;56.026;35.960;2023-12-20T09:27:31;97436.38;;;4.91;76.78
75045;BME280;63614;56.026;35.960;2023-12-20T09:29:57;97440.56;;;4.85;77.19
75045;BME280;63614;56.026;35.960;2023-12-20T09:32:29;97430.06;;;4.87;77.29
75045;BME280;63614;56.026;35.960;2023-12-20T09:34:55;97429.25;;;4.80;77.21
75045;BME280;63614;56.026;35.960;2023-12-20T09:37:21;97425.31;;;4.77;76.98
75045;BME280;63614;56.026;35.960;2023-12-20T09:39:47;97426.88;;;4.71;77.43
75045;BME280;63614;56.026;35.960;2023-12-20T09:42:16;97421.13;;;4.76;77.52
75045;BME280;63614;56.026;35.960;2023-12-20T09:44:44;97418.97;;;4.73;77.67
75045;BME280;63614;56.026;35.960;2023-12-20T09:47:10;97408.28;;;4.69;77.55
75045;BME280;63614;56.026;35.960;2023-12-20T09:49:37;97413.81;;;4.80;77.26
75045;BME280;63614;56.026;35.960;2023-12-20T09:52:05;97422.53;;;4.79;77.09
75045;BME280;63614;56.026;35.960;2023-12-20T09:54:34;97437.19;;;4.85;77.04
75045;BME280;63614;56.026;35.960;2023-12-20T09:57:00;97435.22;;;4.94;76.55
75045;BME280;63614;56.026;35.960;2023-12-20T09:59:25;97437.19;;;4.85;76.60
75045;BME280;63614;56.026;35.960;2023-12-20T10:01:55;97443.72;;;5.01;76.20
75045;BME280;63614;56.026;35.960;2023-12-20T10:04:22;97446.09;;;4.96;76.09
75045;BME280;63614;56.026;35.960;2023-12-20T10:06:48;97461.34;;;4.97;76.30
75045;BME280;63614;56.026;35.960;2023-12-20T10:09:14;97458.38;;;5.00;75.66
75045;BME280;63614;56.026;35.960;2023-12-20T10:11:40;97457.59;;;5.06;75.14
75045;BME280;63614;56.026;35.960;2023-12-20T10:14:08;97463.34;;;4.95;75.42
75045;BME280;63614;56.026;35.960;2023-12-20T10:16:34;97462.56;;;5.01;75.54
75045;BME280;63614;56.026;35.960;2023-12-20T10:19:00;97460.38;;;4.98;75.64
75045;BME280;63614;56.026;35.960;2023-12-20T10:21:30;97465.13;;;5.01;75.41
75045;BME280;63614;56.026;35.960;2023-12-20T10:23:57;97467.09;;;4.86;75.76
75045;BME280;63614;56.026;35.960;2023-12-20T10:26:26;97457.19;;;4.83;76.12
75045;BME280;63614;56.026;35.960;2023-12-20T10:29:00;97471.47;;;4.99;75.49
75045;BME280;63614;56.026;35.960;2023-12-20T10:31:34;97469.47;;;4.94;75.73
75045;BME280;63614;56.026;35.960;2023-12-20T10:34:01;97472.47;;;5.04;75.00
75045;BME280;63614;56.026;35.960;2023-12-20T10:36:32;97464.13;;;4.96;75.01
75045;BME280;63614;56.026;35.960;2023-12-20T10:38:59;97469.88;;;4.98;75.07
75045;BME280;63614;56.026;35.960;2023-12-20T10:41:26;97466.91;;;5.01;75.09
75045;BME280;63614;56.026;35.960;2023-12-20T10:44:00;97461.75;;;5.01;74.99
75045;BME280;63614;56.026;35.960;2023-12-20T10:46:30;97467.09;;;4.99;75.28
75045;BME280;63614;56.026;35.960;2023-12-20T10:48:58;97459.00;;;5.09;74.70
75045;BME280;63614;56.026;35.960;2023-12-20T10:51:25;97456.63;;;5.07;74.67
75045;BME280;63614;56.026;35.960;2023-12-20T10:53:56;97465.72;;;4.97;75.03
75045;BME280;63614;56.026;35.960;2023-12-20T10:56:22;97472.28;;;5.06;74.72
75045;BME280;63614;56.026;35.960;2023-12-20T10:58:52;97469.28;;;4.96;74.88
75045;BME280;63614;56.026;35.960;2023-12-20T11:01:18;97467.50;;;5.03;74.71
75045;BME280;63614;56.026;35.960;2023-12-20T11:03:50;97464.94;;;4.83;75.14
75045;BME280;63614;56.026;35.960;2023-12-20T11:09:31;97471.66;;;4.90;74.81
75045;BME280;63614;56.026;35.960;2023-12-20T11:14:46;97473.25;;;5.05;74.45
75045;BME280;63614;56.026;35.960;2023-12-20T11:17:13;97477.81;;;4.89;74.62
75045;BME280;63614;56.026;35.960;2023-12-20T11:22:31;97491.84;;;4.73;75.33
75045;BME280;63614;56.026;35.960;2023-12-20T11:25:10;97485.94;;;4.93;74.64
75045;BME280;63614;56.026;35.960;2023-12-20T11:27:40;97483.19;;;4.95;74.49
75045;BME280;63614;56.026;35.960;2023-12-20T11:30:07;97482.38;;;4.87;74.88
75045;BME280;63614;56.026;35.960;2023-12-20T11:32:36;97463.13;;;4.83;74.73
75045;BME280;63614;56.026;35.960;2023-12-20T11:37:36;97475.63;;;4.66;74.97
75045;BME280;63614;56.026;35.960;2023-12-20T11:40:06;97484.53;;;4.64;74.86
75045;BME280;63614;56.026;35.960;2023-12-20T11:42:38;97488.44;;;4.53;75.14
75045;BME280;63614;56.026;35.960;2023-12-20T11:45:08;97483.09;;;4.54;75.04
75045;BME280;63614;56.026;35.960;2023-12-20T11:47:34;97482.72;;;4.44;74.85
75045;BME280;63614;56.026;35.960;2023-12-20T11:50:01;97477.13;;;4.34;74.87
75045;BME280;63614;56.026;35.960;2023-12-20T11:52:30;97485.25;;;4.31;74.60
75045;BME280;63614;56.026;35.960;2023-12-20T11:54:57;97485.59;;;4.21;75.01
75045;BME280;63614;56.026;35.960;2023-12-20T11:57:24;97489.72;;;4.09;75.45
75045;BME280;63614;56.026;35.960;2023-12-20T11:59:50;97492.69;;;4.06;75.65
75045;BME280;63614;56.026;35.960;2023-12-20T12:02:16;97500.72;;;3.89;76.46
75045;BME280;63614;56.026;35.960;2023-12-20T12:04:42;97498.28;;;3.74;77.16
75045;BME280;63614;56.026;35.960;2023-12-20T12:07:08;97496.69;;;3.73;77.47
75045;BME280;63614;56.026;35.960;2023-12-20T12:09:34;97502.44;;;3.75;77.52
75045;BME280;63614;56.026;35.960;2023-12-20T12:12:01;97494.06;;;3.60;78.22
75045;BME280;63614;56.026;35.960;2023-12-20T12:14:27;97493.22;;;3.53;78.56
75045;BME280;63614;56.026;35.960;2023-12-20T12:16:53;97499.72;;;3.49;78.85
75045;BME280;63614;56.026;35.960;2023-12-20T12:19:23;97499.28;;;3.38;79.24
75045;BME280;63614;56.026;35.960;2023-12-20T12:21:50;97507.72;;;3.32;79.30
75045;BME280;63614;56.026;35.960;2023-12-20T12:24:20;97510.91;;;3.34;79.30
75045;BME280;63614;56.026;35.960;2023-12-20T12:26:52;97523.56;;;3.36;79.31
75045;BME280;63614;56.026;35.960;2023-12-20T12:29:19;97529.25;;;3.31;79.47
75045;BME280;63614;56.026;35.960;2023-12-20T12:31:45;97522.97;;;3.34;79.73
75045;BME280;63614;56.026;35.960;2023-12-20T12:34:11;97526.69;;;3.31;79.63
75045;BME280;63614;56.026;35.960;2023-12-20T12:36:37;97524.63;;;3.20;80.04
75045;BME280;63614;56.026;35.960;2023-12-20T12:39:03;97522.84;;;3.20;80.20
75045;BME280;63614;56.026;35.960;2023-12-20T12:41:31;97519.66;;;3.18;80.13
75045;BME280;63614;56.026;35.960;2023-12-20T12:43:57;97527.25;;;3.26;80.17
75045;BME280;63614;56.026;35.960;2023-12-20T12:46:23;97526.91;;;3.36;79.75
75045;BME280;63614;56.026;35.960;2023-12-20T12:48:49;97528.09;;;3.34;79.75
75045;BME280;63614;56.026;35.960;2023-12-20T12:51:15;97512.75;;;3.47;79.59
75045;BME280;63614;56.026;35.960;2023-12-20T12:53:41;97511.59;;;3.50;79.18
75045;BME280;63614;56.026;35.960;2023-12-20T12:56:07;97502.84;;;3.44;79.10
75045;BME280;63614;56.026;35.960;2023-12-20T12:58:33;97500.25;;;3.37;79.59
75045;BME280;63614;56.026;35.960;2023-12-20T13:00:59;97505.31;;;3.24;79.89
75045;BME280;63614;56.026;35.960;2023-12-20T13:03:25;97505.41;;;3.16;80.41
75045;BME280;63614;56.026;35.960;2023-12-20T13:05:51;97500.19;;;3.02;80.49
75045;BME280;63614;56.026;35.960;2023-12-20T13:08:17;97508.66;;;3.03;80.58